Time;durP1;ratioP1;P1;durP2;ratioP2;P2;SDS_P1;SDS_P2;PMS_P1;PMS_P2;Temp;Humidity;BMP_temperature;BMP_pressure;BME280_temperature;BME280_humidity;BME280_pressure;Samples;Min_cycle;Max_cycle;Signal;HPM_P1;HPM_P2
2021/09/16 00:04:43;;;;;;;9.77;5.50;;;;;;;18.35;93.72;100199.50;20736653;28;20121;-69
2021/09/16 00:14:45;;;;;;;10.05;5.45;;;;;;;18.32;93.57;100205.00;20719534;28;20458;-70
2021/09/16 00:24:47;;;;;;;11.68;7.13;;;;;;;18.35;93.37;100210.13;20735960;28;20756;-70
2021/09/16 00:34:49;;;;;;;11.52;6.28;;;;;;;18.27;93.26;100212.31;20735078;28;20050;-70
2021/09/16 00:44:51;;;;;;;10.23;6.53;;;;;;;18.26;93.55;100216.78;20743151;28;20119;-70
2021/09/16 00:54:54;;;;;;;11.48;6.88;;;;;;;18.20;93.72;100204.69;20749994;28;20503;-70
2021/09/16 01:04:56;;;;;;;10.05;6.07;;;;;;;18.23;93.40;100216.06;20748253;28;20529;-70
2021/09/16 01:14:57;;;;;;;9.93;6.28;;;;;;;18.24;93.33;100223.91;20748172;28;20050;-70
2021/09/16 01:24:59;;;;;;;10.50;6.22;;;;;;;18.20;93.32;100236.50;20747017;28;20119;-70
2021/09/16 01:35:01;;;;;;;12.43;6.45;;;;;;;18.23;93.68;100222.22;20727327;28;20038;-70
2021/09/16 01:45:03;;;;;;;10.57;6.20;;;;;;;18.20;93.78;100223.25;20743423;28;20046;-70
2021/09/16 01:55:06;;;;;;;10.52;6.45;;;;;;;18.19;93.97;100210.91;20742682;28;20045;-70
2021/09/16 02:05:09;;;;;;;10.02;6.63;;;;;;;18.10;94.12;100214.00;20726092;28;20053;-70
2021/09/16 02:15:11;;;;;;;12.40;6.47;;;;;;;18.03;93.98;100201.16;20743690;28;20104;-71
2021/09/16 02:25:13;;;;;;;11.82;6.30;;;;;;;18.02;94.58;100208.25;20742377;28;20104;-70
2021/09/16 02:35:15;;;;;;;11.13;6.63;;;;;;;17.99;94.31;100216.34;20741437;28;20046;-70
2021/09/16 02:45:17;;;;;;;17.17;10.75;;;;;;;18.05;93.33;100207.22;20741507;28;20558;-70
2021/09/16 02:55:19;;;;;;;30.92;19.92;;;;;;;17.77;91.31;100221.81;20738434;28;20100;-69
2021/09/16 03:05:21;;;;;;;30.90;22.67;;;;;;;17.64;89.68;100224.19;20737851;28;20050;-70
2021/09/16 03:15:24;;;;;;;36.65;25.00;;;;;;;17.69;88.46;100221.31;20739024;28;20480;-69
2021/09/16 03:25:28;;;;;;;41.67;26.03;;;;;;;17.54;90.09;100233.50;20738192;28;20080;-68
2021/09/16 03:35:29;;;;;;;39.30;27.25;;;;;;;17.46;90.56;100219.75;20737345;28;20050;-68
2021/09/16 03:45:32;;;;;;;41.63;28.88;;;;;;;17.14;91.67;100237.97;20737077;28;20050;-69
2021/09/16 03:55:34;;;;;;;45.10;29.10;;;;;;;16.79;93.83;100246.63;20735389;28;20046;-69
2021/09/16 04:05:38;;;;;;;51.53;31.20;;;;;;;16.58;95.13;100248.38;20736097;28;20204;-68
2021/09/16 04:15:40;;;;;;;48.37;30.97;;;;;;;16.41;95.00;100254.38;20737395;28;20050;-69
2021/09/16 04:25:41;;;;;;;45.65;28.67;;;;;;;16.45;94.58;100263.91;20751283;28;20049;-68
2021/09/16 04:35:43;;;;;;;51.70;32.13;;;;;;;16.48;95.03;100270.81;20751497;28;20423;-68
2021/09/16 04:45:45;;;;;;;51.25;32.25;;;;;;;16.42;95.08;100280.72;20750596;28;20049;-69
2021/09/16 04:55:47;;;;;;;48.05;31.02;;;;;;;16.37;95.15;100281.84;20747425;28;20065;-68
2021/09/16 05:05:48;;;;;;;54.25;33.03;;;;;;;16.19;96.87;100291.38;20747943;28;20049;-67
2021/09/16 05:15:50;;;;;;;51.50;32.35;;;;;;;16.09;97.03;100293.53;20730311;28;20368;-68
2021/09/16 05:25:52;;;;;;;51.97;29.77;;;;;;;16.13;97.06;100302.19;20747021;28;20050;-69
2021/09/16 05:35:54;;;;;;;39.95;26.98;;;;;;;16.14;96.25;100298.63;20745168;28;20127;-68
2021/09/16 05:45:56;;;;;;;40.72;24.70;;;;;;;16.08;96.00;100310.31;20727990;28;20049;-68
2021/09/16 05:55:58;;;;;;;43.65;27.05;;;;;;;16.10;96.29;100328.75;20742609;28;20057;-68
2021/09/16 06:06:00;;;;;;;42.25;26.77;;;;;;;16.04;95.98;100345.69;20742739;28;20048;-67
2021/09/16 06:16:02;;;;;;;38.97;24.80;;;;;;;15.95;95.46;100348.66;20742874;28;20104;-69
2021/09/16 06:26:03;;;;;;;44.17;26.67;;;;;;;15.94;94.43;100360.16;20741903;28;20570;-67
2021/09/16 06:36:06;;;;;;;38.58;25.40;;;;;;;15.76;95.03;100381.97;20740528;28;20915;-67
2021/09/16 06:46:08;;;;;;;42.55;27.38;;;;;;;15.64;96.44;100384.16;20740510;28;20061;-67
2021/09/16 06:56:10;;;;;;;49.05;28.38;;;;;;;15.71;96.46;100403.25;20739624;28;20050;-67
2021/09/16 07:06:11;;;;;;;44.28;26.63;;;;;;;15.71;95.16;100405.03;20751169;28;20077;-67
2021/09/16 07:16:13;;;;;;;38.30;25.27;;;;;;;15.77;94.74;100415.41;20773466;28;20049;-68
2021/09/16 07:26:15;;;;;;;41.58;25.60;;;;;;;15.85;94.89;100430.00;20800577;28;20045;-67
2021/09/16 07:36:17;;;;;;;43.22;24.90;;;;;;;15.86;94.31;100437.03;20748876;28;20049;-67
2021/09/16 07:46:19;;;;;;;36.60;23.35;;;;;;;16.00;94.07;100448.84;20820184;28;20048;-67
2021/09/16 07:56:22;;;;;;;33.03;21.42;;;;;;;16.17;92.64;100457.88;20831141;28;20053;-67
2021/09/16 08:06:24;;;;;;;35.55;20.83;;;;;;;16.49;91.93;100469.00;20835968;28;20423;-67
2021/09/16 08:16:26;;;;;;;29.30;18.92;;;;;;;16.50;91.32;100486.56;20783487;28;20479;-67
2021/09/16 08:26:28;;;;;;;27.67;18.73;;;;;;;16.60;90.46;100493.22;20753342;28;20046;-68
2021/09/16 08:36:30;;;;;;;29.10;18.83;;;;;;;16.73;90.20;100503.38;20752089;28;20054;-68
2021/09/16 08:46:32;;;;;;;20.50;14.57;;;;;;;16.62;87.24;100509.91;20764481;23;20046;-72
2021/09/16 08:56:35;;;;;;;19.75;13.10;;;;;;;16.73;86.99;100508.66;20752326;28;20129;-71
2021/09/16 09:06:42;;;;;;;18.75;13.00;;;;;;;16.89;85.92;100512.41;20751600;28;20487;-72
2021/09/16 09:16:46;;;;;;;19.60;12.27;;;;;;;17.13;84.42;100519.34;20757726;28;20107;-72
2021/09/16 09:26:48;;;;;;;16.77;9.85;;;;;;;17.28;82.02;100515.19;20762824;28;20077;-72
2021/09/16 09:36:52;;;;;;;16.80;10.25;;;;;;;17.51;80.21;100508.94;20746522;28;20458;-72
2021/09/16 09:46:54;;;;;;;16.98;11.15;;;;;;;17.86;80.42;100525.13;20745733;28;20050;-72
2021/09/16 09:57:25;;;;;;;16.80;10.52;;;;;;;18.03;77.77;100527.03;20726660;28;20049;-72
2021/09/16 10:07:38;;;;;;;15.45;9.95;;;;;;;17.93;78.11;100527.44;20739083;28;20046;-72
2021/09/16 10:17:41;;;;;;;11.30;8.18;;;;;;;18.22;72.97;100530.59;20789192;28;20046;-72
2021/09/16 10:27:47;;;;;;;11.68;7.70;;;;;;;18.21;75.24;100528.88;20824534;28;20140;-72
2021/09/16 10:37:49;;;;;;;15.02;8.60;;;;;;;18.17;72.33;100521.97;20823623;28;20391;-72
2021/09/16 10:48:13;;;;;;;17.40;8.55;;;;;;;18.74;72.21;100516.75;20823904;28;20057;-72
2021/09/16 10:58:28;;;;;;;16.98;9.05;;;;;;;18.40;73.79;100518.28;20822154;28;20461;-72
2021/09/16 11:08:58;;;;;;;15.38;9.02;;;;;;;18.90;72.85;100510.59;20821462;28;20053;-72
2021/09/16 11:19:00;;;;;;;14.10;8.95;;;;;;;18.74;72.08;100508.78;20730089;28;20054;-72
2021/09/16 11:29:09;;;;;;;15.70;9.65;;;;;;;18.97;72.01;100511.16;20737954;28;20512;-72
2021/09/16 11:39:17;;;;;;;13.98;9.05;;;;;;;19.16;68.50;100496.09;20737924;28;20050;-72
2021/09/16 11:49:20;;;;;;;16.45;7.68;;;;;;;19.20;68.54;100496.75;20738159;28;20046;-72
2021/09/16 11:59:23;;;;;;;11.93;8.18;;;;;;;19.44;67.80;100502.63;20738714;28;20484;-73
2021/09/16 12:09:25;;;;;;;13.90;7.70;;;;;;;19.80;67.78;100483.13;20737526;28;20470;-72
2021/09/16 12:19:27;;;;;;;13.10;6.72;;;;;;;20.11;64.91;100487.66;20815040;28;20091;-72
2021/09/16 12:29:37;;;;;;;9.45;6.05;;;;;;;20.07;64.75;100488.75;20819418;28;20054;-72
2021/09/16 12:39:47;;;;;;;9.43;5.93;;;;;;;20.50;65.86;100476.66;20824282;28;20042;-73
2021/09/16 12:49:51;;;;;;;10.88;6.82;;;;;;;20.02;64.00;100481.03;20833391;28;20045;-73
2021/09/16 12:59:56;;;;;;;13.43;6.47;;;;;;;20.07;66.31;100468.34;20833094;28;20119;-72
2021/09/16 13:10:25;;;;;;;8.25;5.50;;;;;;;20.02;66.03;100470.41;20831264;28;20050;-72
2021/09/16 13:20:28;;;;;;;8.88;5.70;;;;;;;19.99;66.55;100468.78;20668000;28;20050;-73
2021/09/16 13:30:30;;;;;;;7.45;4.57;;;;;;;20.12;64.35;100460.13;20667619;28;20502;-73
2021/09/16 13:40:34;;;;;;;9.90;5.20;;;;;;;20.11;63.43;100443.31;20681855;28;20046;-72
2021/09/16 13:50:35;;;;;;;6.53;4.57;;;;;;;20.19;62.62;100453.53;20689254;28;20109;-73
2021/09/16 14:00:37;;;;;;;7.03;4.00;;;;;;;20.14;64.43;100447.63;20649776;28;20101;-73
2021/09/16 14:10:41;;;;;;;8.82;3.83;;;;;;;19.74;63.78;100449.78;20674581;28;20129;-72
2021/09/16 14:20:43;;;;;;;6.80;3.87;;;;;;;19.85;64.11;100446.53;20826300;28;20081;-73
2021/09/16 14:30:44;;;;;;;6.63;4.45;;;;;;;19.59;63.70;100451.38;20825306;28;20095;-72
2021/09/16 14:40:47;;;;;;;7.13;4.45;;;;;;;19.68;62.15;100461.56;20826144;28;20406;-73
2021/09/16 14:51:02;;;;;;;7.55;4.50;;;;;;;19.74;61.02;100452.44;20826015;28;20461;-73
2021/09/16 15:01:04;;;;;;;10.48;4.80;;;;;;;19.68;61.39;100442.09;20823196;28;20125;-73
2021/09/16 15:11:06;;;;;;;8.15;4.20;;;;;;;19.75;61.24;100440.00;20813969;28;20042;-72
2021/09/16 15:21:08;;;;;;;8.23;4.97;;;;;;;19.36;61.99;100439.31;20740933;28;20574;-73
2021/09/16 15:31:10;;;;;;;7.72;5.13;;;;;;;19.21;63.11;100446.28;20738567;28;20231;-72
2021/09/16 15:41:12;;;;;;;7.97;5.30;;;;;;;19.19;62.78;100456.09;20738694;28;20076;-73
2021/09/16 15:51:14;;;;;;;8.10;4.97;;;;;;;18.89;63.42;100460.28;20737856;28;20046;-73
2021/09/16 16:01:15;;;;;;;7.15;5.20;;;;;;;18.75;62.51;100453.00;20737082;28;20046;-73
2021/09/16 16:11:18;;;;;;;9.50;5.47;;;;;;;19.04;62.37;100459.53;20749225;28;20049;-73
2021/09/16 16:21:19;;;;;;;9.30;4.90;;;;;;;18.56;62.09;100465.41;20836026;28;20079;-73
2021/09/16 16:31:21;;;;;;;8.98;5.07;;;;;;;18.52;63.27;100471.78;20834189;28;20053;-73
2021/09/16 16:41:23;;;;;;;9.50;5.53;;;;;;;18.23;63.88;100479.28;20816286;28;20073;-73
2021/09/16 16:51:25;;;;;;;8.02;4.80;;;;;;;18.09;64.27;100487.88;20831754;28;20475;-73
2021/09/16 17:01:28;;;;;;;7.80;4.45;;;;;;;18.15;65.21;100499.97;20831593;28;20414;-73
2021/09/16 17:11:30;;;;;;;8.80;6.13;;;;;;;18.12;64.95;100485.09;20820019;28;20129;-73
2021/09/16 17:21:32;;;;;;;7.82;4.85;;;;;;;18.00;69.80;100498.03;20749061;28;20049;-73
2021/09/16 17:31:34;;;;;;;8.63;5.88;;;;;;;17.95;71.18;100500.88;20731819;28;20049;-73
2021/09/16 17:41:36;;;;;;;8.52;5.50;;;;;;;17.87;72.88;100508.28;20748113;28;20479;-73
2021/09/16 17:51:38;;;;;;;9.55;6.00;;;;;;;17.72;74.47;100522.19;20747549;28;20116;-73
2021/09/16 18:01:41;;;;;;;7.50;5.40;;;;;;;17.52;75.88;100526.53;20752762;28;20416;-73
2021/09/16 18:11:43;;;;;;;9.10;5.85;;;;;;;17.29;77.77;100527.50;20781742;28;20057;-73
2021/09/16 18:21:45;;;;;;;9.82;7.60;;;;;;;17.21;78.03;100547.28;20827008;28;20049;-73
2021/09/16 18:31:47;;;;;;;10.18;6.38;;;;;;;17.03;79.15;100562.09;20825351;28;20092;-73
2021/09/16 18:41:48;;;;;;;9.60;6.88;;;;;;;17.17;78.49;100571.22;20824514;28;20088;-73
2021/09/16 18:51:50;;;;;;;13.68;7.32;;;;;;;17.22;79.30;100575.47;20823261;28;20041;-73
2021/09/16 19:01:52;;;;;;;10.45;6.80;;;;;;;17.07;79.82;100577.81;20822835;28;20049;-73
2021/09/16 19:11:54;;;;;;;10.38;6.65;;;;;;;16.80;80.69;100594.75;20789693;28;20660;-73
2021/09/16 19:21:56;;;;;;;10.63;6.75;;;;;;;16.67;81.11;100594.28;20740402;28;20050;-73
2021/09/16 19:31:58;;;;;;;11.15;6.85;;;;;;;16.68;80.63;100585.47;20739544;28;20463;-73
2021/09/16 19:42:00;;;;;;;12.00;6.50;;;;;;;16.68;78.98;100599.56;20687189;28;20481;-73
2021/09/16 19:52:02;;;;;;;12.15;6.85;;;;;;;16.55;81.64;100598.28;20656027;28;20050;-73
2021/09/16 20:02:04;;;;;;;9.23;6.57;;;;;;;16.68;81.18;100607.47;20657042;28;20408;-73
2021/09/16 20:12:06;;;;;;;12.45;7.72;;;;;;;16.75;81.43;100591.41;20691045;28;20049;-73
2021/09/16 20:22:09;;;;;;;11.98;7.95;;;;;;;16.68;82.25;100601.34;20819304;28;20064;-73
2021/09/16 20:32:11;;;;;;;13.57;6.93;;;;;;;16.37;82.90;100591.03;20818874;28;20045;-73
2021/09/16 20:42:14;;;;;;;10.20;6.80;;;;;;;16.22;82.32;100591.59;20818862;28;20057;-73
2021/09/16 20:52:15;;;;;;;10.02;7.50;;;;;;;16.30;81.58;100590.41;20799470;28;20104;-73
2021/09/16 21:02:16;;;;;;;14.15;8.77;;;;;;;16.30;82.31;100589.53;20825642;28;20095;-73
2021/09/16 21:12:18;;;;;;;12.57;8.20;;;;;;;16.30;81.73;100579.81;20813306;28;20137;-73
2021/09/16 21:22:20;;;;;;;12.32;7.50;;;;;;;16.31;81.27;100580.69;20749363;28;20049;-73
2021/09/16 21:32:23;;;;;;;11.48;8.38;;;;;;;16.25;81.85;100580.91;20748808;28;20050;-73
2021/09/16 21:42:24;;;;;;;12.65;7.93;;;;;;;16.06;82.40;100592.13;20748259;28;20100;-73
2021/09/16 21:52:26;;;;;;;11.60;8.15;;;;;;;16.05;83.64;100589.53;20745348;28;20050;-73
2021/09/16 22:02:28;;;;;;;13.55;8.70;;;;;;;15.77;83.77;100602.84;20728951;28;20050;-73
2021/09/16 22:12:30;;;;;;;14.95;8.10;;;;;;;15.90;82.30;100607.66;20750833;28;20134;-73
2021/09/16 22:22:33;;;;;;;13.23;8.00;;;;;;;15.84;83.95;100607.84;20773099;28;20057;-73
2021/09/16 22:32:35;;;;;;;11.73;7.47;;;;;;;15.92;83.80;100604.97;20726738;28;20451;-74
2021/09/16 22:42:38;;;;;;;11.80;7.78;;;;;;;15.93;84.17;100606.69;20742820;28;20081;-73
2021/09/16 22:52:44;;;;;;;10.50;7.45;;;;;;;16.02;84.31;100611.63;20740881;28;20136;-74
2021/09/16 23:02:46;;;;;;;13.18;7.88;;;;;;;15.93;85.09;100601.41;20741284;28;20054;-74
2021/09/16 23:12:48;;;;;;;12.10;7.65;;;;;;;15.76;84.90;100601.97;20738842;28;20050;-74
2021/09/16 23:22:50;;;;;;;10.85;7.32;;;;;;;15.58;85.95;100611.34;20739600;28;20252;-74
2021/09/16 23:32:52;;;;;;;8.77;7.03;;;;;;;15.42;85.86;100609.22;20738974;28;20046;-74
2021/09/16 23:42:54;;;;;;;13.52;7.18;;;;;;;15.40;86.98;100606.66;20738451;28;20411;-74
2021/09/16 23:52:56;;;;;;;12.18;7.90;;;;;;;15.35;86.51;100600.66;20737983;28;20113;-73
